sensor_id;sensor_type;location;lat;lon;timestamp;temperature;humidity
15113;DHT22;7657;50.140;7.076;2023-04-01T00:00:25;8.50;99.90
15113;DHT22;7657;50.140;7.076;2023-04-01T00:02:52;8.50;99.90
15113;DHT22;7657;50.140;7.076;2023-04-01T00:05:19;8.50;99.90
15113;DHT22;7657;50.140;7.076;2023-04-01T00:07:46;8.40;99.90
15113;DHT22;7657;50.140;7.076;2023-04-01T00:10:13;8.50;99.90
15113;DHT22;7657;50.140;7.076;2023-04-01T00:12:42;8.40;99.90
15113;DHT22;7657;50.140;7.076;2023-04-01T00:15:11;8.50;99.90
15113;DHT22;7657;50.140;7.076;2023-04-01T00:17:38;8.60;99.90
15113;DHT22;7657;50.140;7.076;2023-04-01T00:20:07;8.50;99.90
15113;DHT22;7657;50.140;7.076;2023-04-01T00:22:35;8.40;99.90
15113;DHT22;7657;50.140;7.076;2023-04-01T00:25:02;8.40;99.90
15113;DHT22;7657;50.140;7.076;2023-04-01T00:27:29;8.30;99.90
15113;DHT22;7657;50.140;7.076;2023-04-01T00:29:58;8.30;99.90
15113;DHT22;7657;50.140;7.076;2023-04-01T00:32:25;8.30;99.90
15113;DHT22;7657;50.140;7.076;2023-04-01T00:34:52;8.30;99.90
15113;DHT22;7657;50.140;7.076;2023-04-01T00:37:20;8.20;99.90
15113;DHT22;7657;50.140;7.076;2023-04-01T00:39:48;8.30;99.90
15113;DHT22;7657;50.140;7.076;2023-04-01T00:42:15;8.30;99.90
15113;DHT22;7657;50.140;7.076;2023-04-01T00:44:42;8.30;99.90
15113;DHT22;7657;50.140;7.076;2023-04-01T00:47:10;8.20;99.90
15113;DHT22;7657;50.140;7.076;2023-04-01T00:49:40;8.20;99.90
15113;DHT22;7657;50.140;7.076;2023-04-01T00:52:08;8.20;99.90
15113;DHT22;7657;50.140;7.076;2023-04-01T00:54:38;8.20;99.90
15113;DHT22;7657;50.140;7.076;2023-04-01T00:57:12;8.20;99.90
15113;DHT22;7657;50.140;7.076;2023-04-01T00:59:43;8.20;99.90
15113;DHT22;7657;50.140;7.076;2023-04-01T01:02:13;8.20;99.90
15113;DHT22;7657;50.140;7.076;2023-04-01T01:04:40;8.20;99.90
15113;DHT22;7657;50.140;7.076;2023-04-01T01:07:15;8.20;99.90
15113;DHT22;7657;50.140;7.076;2023-04-01T01:09:49;8.20;99.90
15113;DHT22;7657;50.140;7.076;2023-04-01T01:12:20;8.20;99.90
15113;DHT22;7657;50.140;7.076;2023-04-01T01:14:55;8.20;99.90
15113;DHT22;7657;50.140;7.076;2023-04-01T01:17:38;8.30;99.90
15113;DHT22;7657;50.140;7.076;2023-04-01T01:26:35;8.30;99.90
15113;DHT22;7657;50.140;7.076;2023-04-01T01:29:12;8.30;99.90
15113;DHT22;7657;50.140;7.076;2023-04-01T01:31:50;8.30;99.90
15113;DHT22;7657;50.140;7.076;2023-04-01T01:34:23;8.20;99.90
15113;DHT22;7657;50.140;7.076;2023-04-01T01:36:56;8.20;99.90
15113;DHT22;7657;50.140;7.076;2023-04-01T01:39:27;8.20;99.90
15113;DHT22;7657;50.140;7.076;2023-04-01T01:41:56;8.30;99.90
15113;DHT22;7657;50.140;7.076;2023-04-01T01:44:25;8.30;99.90
15113;DHT22;7657;50.140;7.076;2023-04-01T01:46:53;8.30;99.90
15113;DHT22;7657;50.140;7.076;2023-04-01T01:49:20;8.30;99.90
15113;DHT22;7657;50.140;7.076;2023-04-01T01:51:47;8.20;99.90
15113;DHT22;7657;50.140;7.076;2023-04-01T01:54:17;8.30;99.90
15113;DHT22;7657;50.140;7.076;2023-04-01T01:56:46;8.40;99.90
15113;DHT22;7657;50.140;7.076;2023-04-01T01:59:15;8.40;99.90
15113;DHT22;7657;50.140;7.076;2023-04-01T02:01:45;8.40;99.90
15113;DHT22;7657;50.140;7.076;2023-04-01T02:04:13;8.30;99.90
15113;DHT22;7657;50.140;7.076;2023-04-01T02:06:47;8.30;99.90
15113;DHT22;7657;50.140;7.076;2023-04-01T02:09:19;8.30;99.90
15113;DHT22;7657;50.140;7.076;2023-04-01T02:11:49;8.40;99.90
15113;DHT22;7657;50.140;7.076;2023-04-01T02:14:19;8.40;99.90
15113;DHT22;7657;50.140;7.076;2023-04-01T02:16:51;8.30;99.90
15113;DHT22;7657;50.140;7.076;2023-04-01T02:19:22;8.30;99.90
15113;DHT22;7657;50.140;7.076;2023-04-01T02:21:55;8.20;99.90
15113;DHT22;7657;50.140;7.076;2023-04-01T02:24:25;8.20;99.90
15113;DHT22;7657;50.140;7.076;2023-04-01T02:26:53;8.20;99.90
15113;DHT22;7657;50.140;7.076;2023-04-01T02:29:23;8.20;99.90
15113;DHT22;7657;50.140;7.076;2023-04-01T02:31:52;8.10;99.90
15113;DHT22;7657;50.140;7.076;2023-04-01T02:34:20;8.10;99.90
15113;DHT22;7657;50.140;7.076;2023-04-01T02:36:48;8.10;99.90
15113;DHT22;7657;50.140;7.076;2023-04-01T02:39:15;8.00;99.90
15113;DHT22;7657;50.140;7.076;2023-04-01T02:41:45;8.10;99.90
15113;DHT22;7657;50.140;7.076;2023-04-01T02:44:13;8.00;99.90
15113;DHT22;7657;50.140;7.076;2023-04-01T02:46:41;8.00;99.90
15113;DHT22;7657;50.140;7.076;2023-04-01T02:49:08;8.00;99.90
15113;DHT22;7657;50.140;7.076;2023-04-01T02:51:35;7.90;99.90
15113;DHT22;7657;50.140;7.076;2023-04-01T02:54:02;7.90;99.90
15113;DHT22;7657;50.140;7.076;2023-04-01T02:56:29;7.90;99.90
15113;DHT22;7657;50.140;7.076;2023-04-01T02:58:57;7.80;99.90
15113;DHT22;7657;50.140;7.076;2023-04-01T03:01:24;7.80;99.90
15113;DHT22;7657;50.140;7.076;2023-04-01T03:03:51;7.80;99.90
15113;DHT22;7657;50.140;7.076;2023-04-01T03:06:18;7.80;99.90
15113;DHT22;7657;50.140;7.076;2023-04-01T03:08:45;7.80;99.90
15113;DHT22;7657;50.140;7.076;2023-04-01T03:11:12;7.90;99.90
15113;DHT22;7657;50.140;7.076;2023-04-01T03:13:39;7.90;99.90
15113;DHT22;7657;50.140;7.076;2023-04-01T03:16:07;7.90;99.90
15113;DHT22;7657;50.140;7.076;2023-04-01T03:18:34;7.90;99.90
15113;DHT22;7657;50.140;7.076;2023-04-01T03:21:13;7.80;99.90
15113;DHT22;7657;50.140;7.076;2023-04-01T03:23:40;7.70;99.90
15113;DHT22;7657;50.140;7.076;2023-04-01T03:26:07;7.70;99.90
15113;DHT22;7657;50.140;7.076;2023-04-01T03:28:34;7.80;99.90
15113;DHT22;7657;50.140;7.076;2023-04-01T03:31:01;7.80;99.90
15113;DHT22;7657;50.140;7.076;2023-04-01T03:33:29;7.80;99.90
15113;DHT22;7657;50.140;7.076;2023-04-01T03:35:56;7.80;99.90
15113;DHT22;7657;50.140;7.076;2023-04-01T03:38:23;7.80;99.90
15113;DHT22;7657;50.140;7.076;2023-04-01T03:40:50;7.70;99.90
15113;DHT22;7657;50.140;7.076;2023-04-01T03:43:17;7.80;99.90
15113;DHT22;7657;50.140;7.076;2023-04-01T03:45:44;7.70;99.90
15113;DHT22;7657;50.140;7.076;2023-04-01T03:48:11;7.70;99.90
15113;DHT22;7657;50.140;7.076;2023-04-01T03:50:39;7.80;99.90
15113;DHT22;7657;50.140;7.076;2023-04-01T03:53:06;7.80;99.90
15113;DHT22;7657;50.140;7.076;2023-04-01T03:55:35;7.80;99.90
15113;DHT22;7657;50.140;7.076;2023-04-01T03:58:02;7.80;99.90
15113;DHT22;7657;50.140;7.076;2023-04-01T04:00:29;7.80;99.90
15113;DHT22;7657;50.140;7.076;2023-04-01T04:02:57;7.80;99.90
15113;DHT22;7657;50.140;7.076;2023-04-01T04:05:24;7.90;99.90
15113;DHT22;7657;50.140;7.076;2023-04-01T04:07:53;7.70;99.90
15113;DHT22;7657;50.140;7.076;2023-04-01T04:10:20;7.80;99.90
15113;DHT22;7657;50.140;7.076;2023-04-01T04:12:49;7.80;99.90
15113;DHT22;7657;50.140;7.076;2023-04-01T04:15:16;7.80;99.90
15113;DHT22;7657;50.140;7.076;2023-04-01T04:17:44;7.70;99.90
15113;DHT22;7657;50.140;7.076;2023-04-01T04:20:11;7.70;99.90
15113;DHT22;7657;50.140;7.076;2023-04-01T04:22:38;7.80;99.90
15113;DHT22;7657;50.140;7.076;2023-04-01T04:25:07;7.80;99.90
15113;DHT22;7657;50.140;7.076;2023-04-01T04:27:35;7.80;99.90
15113;DHT22;7657;50.140;7.076;2023-04-01T04:30:02;7.80;99.90
15113;DHT22;7657;50.140;7.076;2023-04-01T04:32:30;7.80;99.90
15113;DHT22;7657;50.140;7.076;2023-04-01T04:34:57;7.80;99.90
15113;DHT22;7657;50.140;7.076;2023-04-01T04:37:24;7.70;99.90
15113;DHT22;7657;50.140;7.076;2023-04-01T04:39:52;7.80;99.90
15113;DHT22;7657;50.140;7.076;2023-04-01T04:42:20;7.80;99.90
15113;DHT22;7657;50.140;7.076;2023-04-01T04:44:47;7.80;99.90
15113;DHT22;7657;50.140;7.076;2023-04-01T04:47:13;7.80;99.90
15113;DHT22;7657;50.140;7.076;2023-04-01T04:49:40;7.90;99.90
15113;DHT22;7657;50.140;7.076;2023-04-01T04:52:07;7.90;99.90
15113;DHT22;7657;50.140;7.076;2023-04-01T04:54:34;8.00;99.90
15113;DHT22;7657;50.140;7.076;2023-04-01T04:57:01;7.90;99.90
15113;DHT22;7657;50.140;7.076;2023-04-01T04:59:30;7.90;99.90
15113;DHT22;7657;50.140;7.076;2023-04-01T05:01:57;7.80;99.90
15113;DHT22;7657;50.140;7.076;2023-04-01T05:04:24;7.80;99.90
15113;DHT22;7657;50.140;7.076;2023-04-01T05:06:51;7.80;99.90
15113;DHT22;7657;50.140;7.076;2023-04-01T05:09:18;7.90;99.90
15113;DHT22;7657;50.140;7.076;2023-04-01T05:11:45;7.80;99.90
15113;DHT22;7657;50.140;7.076;2023-04-01T05:14:13;7.80;99.90
15113;DHT22;7657;50.140;7.076;2023-04-01T05:16:41;7.80;99.90
15113;DHT22;7657;50.140;7.076;2023-04-01T05:19:08;7.90;99.90
15113;DHT22;7657;50.140;7.076;2023-04-01T05:21:35;7.90;99.90
15113;DHT22;7657;50.140;7.076;2023-04-01T05:24:02;7.90;99.90
15113;DHT22;7657;50.140;7.076;2023-04-01T05:26:29;7.90;99.90
15113;DHT22;7657;50.140;7.076;2023-04-01T05:28:56;7.90;99.90
15113;DHT22;7657;50.140;7.076;2023-04-01T05:31:22;7.90;99.90
15113;DHT22;7657;50.140;7.076;2023-04-01T05:33:52;7.90;99.90
15113;DHT22;7657;50.140;7.076;2023-04-01T05:36:19;7.90;99.90
15113;DHT22;7657;50.140;7.076;2023-04-01T05:38:46;8.00;99.90
15113;DHT22;7657;50.140;7.076;2023-04-01T05:41:13;8.00;99.90
15113;DHT22;7657;50.140;7.076;2023-04-01T05:43:41;8.00;99.90
15113;DHT22;7657;50.140;7.076;2023-04-01T05:46:08;8.10;99.90
15113;DHT22;7657;50.140;7.076;2023-04-01T05:48:35;8.10;99.90
15113;DHT22;7657;50.140;7.076;2023-04-01T05:51:04;8.00;99.90
15113;DHT22;7657;50.140;7.076;2023-04-01T05:53:31;8.00;99.90
15113;DHT22;7657;50.140;7.076;2023-04-01T05:56:02;8.00;99.90
15113;DHT22;7657;50.140;7.076;2023-04-01T05:58:29;7.90;99.90
15113;DHT22;7657;50.140;7.076;2023-04-01T06:01:00;8.00;99.90
15113;DHT22;7657;50.140;7.076;2023-04-01T06:03:27;8.00;99.90
15113;DHT22;7657;50.140;7.076;2023-04-01T06:05:54;8.10;99.90
15113;DHT22;7657;50.140;7.076;2023-04-01T06:08:24;8.00;99.90
15113;DHT22;7657;50.140;7.076;2023-04-01T06:11:01;8.00;99.90
15113;DHT22;7657;50.140;7.076;2023-04-01T06:13:39;7.90;99.90
15113;DHT22;7657;50.140;7.076;2023-04-01T06:16:18;7.90;99.90
15113;DHT22;7657;50.140;7.076;2023-04-01T06:19:03;7.90;99.90
15113;DHT22;7657;50.140;7.076;2023-04-01T06:21:55;8.00;99.90
15113;DHT22;7657;50.140;7.076;2023-04-01T06:24:43;7.90;99.90
15113;DHT22;7657;50.140;7.076;2023-04-01T06:27:20;8.00;99.90
15113;DHT22;7657;50.140;7.076;2023-04-01T06:30:01;8.10;99.90
15113;DHT22;7657;50.140;7.076;2023-04-01T06:32:45;8.10;99.90
15113;DHT22;7657;50.140;7.076;2023-04-01T06:35:31;8.10;99.90
15113;DHT22;7657;50.140;7.076;2023-04-01T06:38:17;8.10;99.90
15113;DHT22;7657;50.140;7.076;2023-04-01T06:41:08;8.20;99.90
15113;DHT22;7657;50.140;7.076;2023-04-01T06:43:46;8.20;99.90
15113;DHT22;7657;50.140;7.076;2023-04-01T06:46:21;8.20;99.90
15113;DHT22;7657;50.140;7.076;2023-04-01T06:49:05;8.20;99.90
15113;DHT22;7657;50.140;7.076;2023-04-01T06:51:39;8.20;99.90
15113;DHT22;7657;50.140;7.076;2023-04-01T06:54:11;8.20;99.90
15113;DHT22;7657;50.140;7.076;2023-04-01T06:56:44;8.20;99.90
15113;DHT22;7657;50.140;7.076;2023-04-01T06:59:15;8.30;99.90
15113;DHT22;7657;50.140;7.076;2023-04-01T07:01:47;8.30;99.90
15113;DHT22;7657;50.140;7.076;2023-04-01T07:04:20;8.30;99.90
15113;DHT22;7657;50.140;7.076;2023-04-01T07:06:50;8.20;99.90
15113;DHT22;7657;50.140;7.076;2023-04-01T07:09:20;8.30;99.90
15113;DHT22;7657;50.140;7.076;2023-04-01T07:11:50;8.30;99.90
15113;DHT22;7657;50.140;7.076;2023-04-01T07:14:22;8.30;99.90
15113;DHT22;7657;50.140;7.076;2023-04-01T07:16:54;8.20;99.90
15113;DHT22;7657;50.140;7.076;2023-04-01T07:19:29;8.30;99.90
15113;DHT22;7657;50.140;7.076;2023-04-01T07:22:00;8.30;99.90
15113;DHT22;7657;50.140;7.076;2023-04-01T07:24:32;8.30;99.90
15113;DHT22;7657;50.140;7.076;2023-04-01T07:27:02;8.30;99.90
15113;DHT22;7657;50.140;7.076;2023-04-01T07:29:29;8.30;99.90
15113;DHT22;7657;50.140;7.076;2023-04-01T07:32:10;8.30;99.90
15113;DHT22;7657;50.140;7.076;2023-04-01T07:34:53;8.30;99.90
15113;DHT22;7657;50.140;7.076;2023-04-01T07:37:28;8.30;99.90
15113;DHT22;7657;50.140;7.076;2023-04-01T07:40:05;8.30;99.90
15113;DHT22;7657;50.140;7.076;2023-04-01T07:42:42;8.40;99.90
15113;DHT22;7657;50.140;7.076;2023-04-01T07:45:18;8.40;99.90
15113;DHT22;7657;50.140;7.076;2023-04-01T07:48:01;8.40;99.90
15113;DHT22;7657;50.140;7.076;2023-04-01T07:50:37;8.40;99.90
15113;DHT22;7657;50.140;7.076;2023-04-01T07:53:11;8.40;99.90
15113;DHT22;7657;50.140;7.076;2023-04-01T07:55:44;8.40;99.90
15113;DHT22;7657;50.140;7.076;2023-04-01T07:58:21;8.50;99.90
15113;DHT22;7657;50.140;7.076;2023-04-01T08:00:56;8.50;99.90
15113;DHT22;7657;50.140;7.076;2023-04-01T08:03:33;8.40;99.90
15113;DHT22;7657;50.140;7.076;2023-04-01T08:06:06;8.40;99.90
15113;DHT22;7657;50.140;7.076;2023-04-01T08:08:46;8.50;99.90
15113;DHT22;7657;50.140;7.076;2023-04-01T08:11:25;8.50;99.90
15113;DHT22;7657;50.140;7.076;2023-04-01T08:14:03;8.50;99.90
15113;DHT22;7657;50.140;7.076;2023-04-01T08:16:36;8.60;99.90
15113;DHT22;7657;50.140;7.076;2023-04-01T08:19:18;8.60;99.90
15113;DHT22;7657;50.140;7.076;2023-04-01T08:21:51;8.60;99.90
15113;DHT22;7657;50.140;7.076;2023-04-01T08:24:24;8.60;99.90
15113;DHT22;7657;50.140;7.076;2023-04-01T08:26:54;8.60;99.90
15113;DHT22;7657;50.140;7.076;2023-04-01T08:29:26;8.60;99.90
15113;DHT22;7657;50.140;7.076;2023-04-01T08:32:05;8.60;99.90
15113;DHT22;7657;50.140;7.076;2023-04-01T08:34:37;8.70;99.90
15113;DHT22;7657;50.140;7.076;2023-04-01T08:37:07;8.70;99.90
15113;DHT22;7657;50.140;7.076;2023-04-01T08:39:37;8.80;99.90
15113;DHT22;7657;50.140;7.076;2023-04-01T08:42:24;8.90;99.90
15113;DHT22;7657;50.140;7.076;2023-04-01T08:45:10;8.90;99.90
15113;DHT22;7657;50.140;7.076;2023-04-01T08:47:52;9.00;99.90
15113;DHT22;7657;50.140;7.076;2023-04-01T08:50:43;8.90;99.90
15113;DHT22;7657;50.140;7.076;2023-04-01T08:53:15;8.90;99.90
15113;DHT22;7657;50.140;7.076;2023-04-01T08:55:56;9.00;99.90
15113;DHT22;7657;50.140;7.076;2023-04-01T08:58:59;9.00;99.90
15113;DHT22;7657;50.140;7.076;2023-04-01T09:02:10;8.90;99.90
15113;DHT22;7657;50.140;7.076;2023-04-01T09:07:39;9.00;99.90
15113;DHT22;7657;50.140;7.076;2023-04-01T09:10:38;9.00;99.90
15113;DHT22;7657;50.140;7.076;2023-04-01T09:13:19;9.00;99.90
15113;DHT22;7657;50.140;7.076;2023-04-01T09:16:11;9.10;99.90
15113;DHT22;7657;50.140;7.076;2023-04-01T09:19:10;9.10;99.90
15113;DHT22;7657;50.140;7.076;2023-04-01T09:21:56;9.20;99.90
15113;DHT22;7657;50.140;7.076;2023-04-01T09:24:40;9.30;99.90
15113;DHT22;7657;50.140;7.076;2023-04-01T09:27:15;9.30;99.90
15113;DHT22;7657;50.140;7.076;2023-04-01T09:33:10;9.30;99.90
15113;DHT22;7657;50.140;7.076;2023-04-01T09:35:47;9.40;99.90
15113;DHT22;7657;50.140;7.076;2023-04-01T09:38:21;9.30;99.90
15113;DHT22;7657;50.140;7.076;2023-04-01T09:40:54;9.40;99.90
15113;DHT22;7657;50.140;7.076;2023-04-01T09:43:27;9.40;99.90
15113;DHT22;7657;50.140;7.076;2023-04-01T09:46:08;9.40;99.90
15113;DHT22;7657;50.140;7.076;2023-04-01T09:48:46;9.50;99.90
15113;DHT22;7657;50.140;7.076;2023-04-01T09:51:26;9.50;99.90
15113;DHT22;7657;50.140;7.076;2023-04-01T09:54:04;9.50;99.90
15113;DHT22;7657;50.140;7.076;2023-04-01T09:56:59;9.50;99.90
15113;DHT22;7657;50.140;7.076;2023-04-01T09:59:55;9.50;99.90
15113;DHT22;7657;50.140;7.076;2023-04-01T10:02:40;9.50;99.90
15113;DHT22;7657;50.140;7.076;2023-04-01T10:05:54;9.60;99.90
15113;DHT22;7657;50.140;7.076;2023-04-01T10:12:06;9.90;99.90
15113;DHT22;7657;50.140;7.076;2023-04-01T10:18:01;10.10;99.90
15113;DHT22;7657;50.140;7.076;2023-04-01T10:20:53;10.20;99.90
15113;DHT22;7657;50.140;7.076;2023-04-01T10:23:38;10.10;99.90
15113;DHT22;7657;50.140;7.076;2023-04-01T10:26:19;10.10;99.90
15113;DHT22;7657;50.140;7.076;2023-04-01T10:35:35;10.10;99.90
15113;DHT22;7657;50.140;7.076;2023-04-01T10:38:31;10.30;99.90
15113;DHT22;7657;50.140;7.076;2023-04-01T10:50:20;10.30;99.90
15113;DHT22;7657;50.140;7.076;2023-04-01T10:53:26;10.10;99.90
15113;DHT22;7657;50.140;7.076;2023-04-01T10:59:45;10.20;99.90
15113;DHT22;7657;50.140;7.076;2023-04-01T11:03:02;10.30;99.90
15113;DHT22;7657;50.140;7.076;2023-04-01T11:06:12;10.30;99.90
15113;DHT22;7657;50.140;7.076;2023-04-01T11:09:26;10.30;99.90
15113;DHT22;7657;50.140;7.076;2023-04-01T11:15:20;10.20;99.90
15113;DHT22;7657;50.140;7.076;2023-04-01T11:21:31;10.30;99.90
15113;DHT22;7657;50.140;7.076;2023-04-01T11:24:20;10.40;99.90
15113;DHT22;7657;50.140;7.076;2023-04-01T11:26:56;10.30;99.90
15113;DHT22;7657;50.140;7.076;2023-04-01T11:32:29;10.30;99.90
15113;DHT22;7657;50.140;7.076;2023-04-01T11:35:25;10.30;99.90
15113;DHT22;7657;50.140;7.076;2023-04-01T11:37:59;10.40;99.90
15113;DHT22;7657;50.140;7.076;2023-04-01T11:40:33;10.40;99.90
15113;DHT22;7657;50.140;7.076;2023-04-01T11:43:08;10.50;99.90
15113;DHT22;7657;50.140;7.076;2023-04-01T11:45:42;10.60;99.90
15113;DHT22;7657;50.140;7.076;2023-04-01T11:48:23;10.70;99.90
15113;DHT22;7657;50.140;7.076;2023-04-01T11:51:15;10.70;99.90
15113;DHT22;7657;50.140;7.076;2023-04-01T11:53:52;10.70;99.90
15113;DHT22;7657;50.140;7.076;2023-04-01T11:56:32;10.80;99.90
15113;DHT22;7657;50.140;7.076;2023-04-01T12:02:11;10.80;99.90
15113;DHT22;7657;50.140;7.076;2023-04-01T12:04:58;10.80;99.90
15113;DHT22;7657;50.140;7.076;2023-04-01T12:07:49;10.80;99.90
15113;DHT22;7657;50.140;7.076;2023-04-01T12:10:20;10.90;99.90
15113;DHT22;7657;50.140;7.076;2023-04-01T12:12:54;11.10;99.90
15113;DHT22;7657;50.140;7.076;2023-04-01T12:15:30;11.00;99.90
15113;DHT22;7657;50.140;7.076;2023-04-01T12:18:05;11.00;99.90
15113;DHT22;7657;50.140;7.076;2023-04-01T12:20:48;11.10;99.90
15113;DHT22;7657;50.140;7.076;2023-04-01T12:23:33;11.10;99.90
15113;DHT22;7657;50.140;7.076;2023-04-01T12:26:25;11.20;99.90
15113;DHT22;7657;50.140;7.076;2023-04-01T12:29:09;11.20;99.90
15113;DHT22;7657;50.140;7.076;2023-04-01T12:31:51;11.20;99.90
15113;DHT22;7657;50.140;7.076;2023-04-01T12:34:39;11.20;99.90
15113;DHT22;7657;50.140;7.076;2023-04-01T12:37:15;11.10;99.90
15113;DHT22;7657;50.140;7.076;2023-04-01T12:39:56;11.10;99.90
15113;DHT22;7657;50.140;7.076;2023-04-01T12:42:39;11.10;99.90
15113;DHT22;7657;50.140;7.076;2023-04-01T12:45:28;11.20;99.90
15113;DHT22;7657;50.140;7.076;2023-04-01T12:57:11;11.20;99.90
15113;DHT22;7657;50.140;7.076;2023-04-01T12:59:57;11.20;99.90
15113;DHT22;7657;50.140;7.076;2023-04-01T13:02:37;11.10;99.90
15113;DHT22;7657;50.140;7.076;2023-04-01T13:05:24;11.00;99.90
15113;DHT22;7657;50.140;7.076;2023-04-01T13:08:08;11.20;99.90
15113;DHT22;7657;50.140;7.076;2023-04-01T13:13:54;11.40;99.90
15113;DHT22;7657;50.140;7.076;2023-04-01T13:16:27;11.60;99.90
15113;DHT22;7657;50.140;7.076;2023-04-01T13:19:00;11.60;99.90
15113;DHT22;7657;50.140;7.076;2023-04-01T13:21:50;11.50;99.90
15113;DHT22;7657;50.140;7.076;2023-04-01T13:24:29;11.50;99.90
15113;DHT22;7657;50.140;7.076;2023-04-01T13:27:02;11.30;99.90
15113;DHT22;7657;50.140;7.076;2023-04-01T13:29:35;11.20;99.90
15113;DHT22;7657;50.140;7.076;2023-04-01T13:32:19;11.20;99.90
15113;DHT22;7657;50.140;7.076;2023-04-01T13:34:59;11.40;99.90
15113;DHT22;7657;50.140;7.076;2023-04-01T13:37:41;11.50;99.90
15113;DHT22;7657;50.140;7.076;2023-04-01T13:40:26;11.60;99.90
15113;DHT22;7657;50.140;7.076;2023-04-01T13:43:01;12.00;99.90
15113;DHT22;7657;50.140;7.076;2023-04-01T13:45:38;12.20;99.90
15113;DHT22;7657;50.140;7.076;2023-04-01T13:48:27;12.00;99.90
15113;DHT22;7657;50.140;7.076;2023-04-01T13:51:16;11.90;99.90
15113;DHT22;7657;50.140;7.076;2023-04-01T13:54:05;11.80;99.90
15113;DHT22;7657;50.140;7.076;2023-04-01T13:56:42;11.80;99.90
15113;DHT22;7657;50.140;7.076;2023-04-01T13:59:29;11.90;99.90
15113;DHT22;7657;50.140;7.076;2023-04-01T14:02:14;12.10;99.90
15113;DHT22;7657;50.140;7.076;2023-04-01T14:04:53;12.30;99.90
15113;DHT22;7657;50.140;7.076;2023-04-01T14:07:49;12.30;99.90
15113;DHT22;7657;50.140;7.076;2023-04-01T14:10:25;12.40;99.90
15113;DHT22;7657;50.140;7.076;2023-04-01T14:13:01;12.30;99.90
15113;DHT22;7657;50.140;7.076;2023-04-01T14:15:42;12.10;99.90
15113;DHT22;7657;50.140;7.076;2023-04-01T14:21:20;11.80;99.90
15113;DHT22;7657;50.140;7.076;2023-04-01T14:27:13;12.10;99.90
15113;DHT22;7657;50.140;7.076;2023-04-01T14:30:00;12.40;99.90
15113;DHT22;7657;50.140;7.076;2023-04-01T14:32:41;12.20;99.90
15113;DHT22;7657;50.140;7.076;2023-04-01T14:38:25;11.90;99.90
15113;DHT22;7657;50.140;7.076;2023-04-01T14:41:00;11.80;99.90
15113;DHT22;7657;50.140;7.076;2023-04-01T14:43:43;11.90;99.90
15113;DHT22;7657;50.140;7.076;2023-04-01T14:46:34;11.60;99.90
15113;DHT22;7657;50.140;7.076;2023-04-01T14:49:15;11.60;99.90
15113;DHT22;7657;50.140;7.076;2023-04-01T14:51:46;11.50;99.90
15113;DHT22;7657;50.140;7.076;2023-04-01T14:54:15;11.60;99.90
15113;DHT22;7657;50.140;7.076;2023-04-01T14:56:49;11.50;99.90
15113;DHT22;7657;50.140;7.076;2023-04-01T14:59:26;11.50;99.90
15113;DHT22;7657;50.140;7.076;2023-04-01T15:01:58;11.60;99.90
15113;DHT22;7657;50.140;7.076;2023-04-01T15:04:43;11.70;99.90
15113;DHT22;7657;50.140;7.076;2023-04-01T15:07:39;11.80;99.90
15113;DHT22;7657;50.140;7.076;2023-04-01T15:10:27;12.00;99.90
15113;DHT22;7657;50.140;7.076;2023-04-01T15:13:05;11.90;99.90
15113;DHT22;7657;50.140;7.076;2023-04-01T15:15:50;11.90;99.90
15113;DHT22;7657;50.140;7.076;2023-04-01T15:18:25;12.00;99.90
15113;DHT22;7657;50.140;7.076;2023-04-01T15:21:18;11.90;99.90
15113;DHT22;7657;50.140;7.076;2023-04-01T15:23:56;11.80;99.90
15113;DHT22;7657;50.140;7.076;2023-04-01T15:26:47;11.80;99.90
15113;DHT22;7657;50.140;7.076;2023-04-01T15:29:34;11.60;99.90
15113;DHT22;7657;50.140;7.076;2023-04-01T15:32:08;11.50;99.90
15113;DHT22;7657;50.140;7.076;2023-04-01T15:34:45;11.40;99.90
15113;DHT22;7657;50.140;7.076;2023-04-01T15:37:18;11.50;99.90
15113;DHT22;7657;50.140;7.076;2023-04-01T15:39:59;11.40;99.90
15113;DHT22;7657;50.140;7.076;2023-04-01T15:42:43;11.30;99.90
15113;DHT22;7657;50.140;7.076;2023-04-01T15:45:18;11.40;99.90
15113;DHT22;7657;50.140;7.076;2023-04-01T15:47:58;11.40;99.90
15113;DHT22;7657;50.140;7.076;2023-04-01T15:50:51;11.30;99.90
15113;DHT22;7657;50.140;7.076;2023-04-01T15:56:26;11.20;99.90
15113;DHT22;7657;50.140;7.076;2023-04-01T15:59:02;11.20;99.90
15113;DHT22;7657;50.140;7.076;2023-04-01T16:01:38;11.00;99.90
15113;DHT22;7657;50.140;7.076;2023-04-01T16:04:22;11.00;99.90
15113;DHT22;7657;50.140;7.076;2023-04-01T16:07:03;11.10;99.90
15113;DHT22;7657;50.140;7.076;2023-04-01T16:09:43;11.10;99.90
15113;DHT22;7657;50.140;7.076;2023-04-01T16:12:18;10.90;99.90
15113;DHT22;7657;50.140;7.076;2023-04-01T16:14:57;11.10;99.90
15113;DHT22;7657;50.140;7.076;2023-04-01T16:17:36;11.10;99.90
15113;DHT22;7657;50.140;7.076;2023-04-01T16:20:18;11.10;99.90
15113;DHT22;7657;50.140;7.076;2023-04-01T16:22:50;11.10;99.90
15113;DHT22;7657;50.140;7.076;2023-04-01T16:25:36;11.00;99.90
15113;DHT22;7657;50.140;7.076;2023-04-01T16:28:21;11.00;99.90
15113;DHT22;7657;50.140;7.076;2023-04-01T16:30:57;11.00;99.90
15113;DHT22;7657;50.140;7.076;2023-04-01T16:33:34;11.00;99.90
15113;DHT22;7657;50.140;7.076;2023-04-01T16:36:09;11.00;99.90
15113;DHT22;7657;50.140;7.076;2023-04-01T16:38:40;10.90;99.90
15113;DHT22;7657;50.140;7.076;2023-04-01T16:41:16;10.90;99.90
15113;DHT22;7657;50.140;7.076;2023-04-01T16:43:48;10.90;99.90
15113;DHT22;7657;50.140;7.076;2023-04-01T16:46:31;10.80;99.90
15113;DHT22;7657;50.140;7.076;2023-04-01T16:49:04;10.80;99.90
15113;DHT22;7657;50.140;7.076;2023-04-01T16:51:39;10.60;99.90
15113;DHT22;7657;50.140;7.076;2023-04-01T16:54:14;10.70;99.90
15113;DHT22;7657;50.140;7.076;2023-04-01T16:56:45;10.70;99.90
15113;DHT22;7657;50.140;7.076;2023-04-01T16:59:19;10.70;99.90
15113;DHT22;7657;50.140;7.076;2023-04-01T17:01:52;10.70;99.90
15113;DHT22;7657;50.140;7.076;2023-04-01T17:04:28;10.70;99.90
15113;DHT22;7657;50.140;7.076;2023-04-01T17:07:05;10.70;99.90
15113;DHT22;7657;50.140;7.076;2023-04-01T17:09:53;10.70;99.90
15113;DHT22;7657;50.140;7.076;2023-04-01T17:12:28;10.80;99.90
15113;DHT22;7657;50.140;7.076;2023-04-01T17:15:04;10.70;99.90
15113;DHT22;7657;50.140;7.076;2023-04-01T17:17:41;10.60;99.90
15113;DHT22;7657;50.140;7.076;2023-04-01T17:20:40;10.60;99.90
15113;DHT22;7657;50.140;7.076;2023-04-01T17:23:14;10.60;99.90
15113;DHT22;7657;50.140;7.076;2023-04-01T17:25:52;10.50;99.90
15113;DHT22;7657;50.140;7.076;2023-04-01T17:28:32;10.50;99.90
15113;DHT22;7657;50.140;7.076;2023-04-01T17:31:07;10.60;99.90
15113;DHT22;7657;50.140;7.076;2023-04-01T17:33:57;10.60;99.90
15113;DHT22;7657;50.140;7.076;2023-04-01T17:36:36;10.50;99.90
15113;DHT22;7657;50.140;7.076;2023-04-01T17:39:36;10.50;99.90
15113;DHT22;7657;50.140;7.076;2023-04-01T17:42:09;10.50;99.90
15113;DHT22;7657;50.140;7.076;2023-04-01T17:44:56;10.40;99.90
15113;DHT22;7657;50.140;7.076;2023-04-01T17:47:46;10.40;99.90
15113;DHT22;7657;50.140;7.076;2023-04-01T17:50:21;10.50;99.90
15113;DHT22;7657;50.140;7.076;2023-04-01T17:52:59;10.50;99.90
15113;DHT22;7657;50.140;7.076;2023-04-01T17:55:41;10.40;99.90
15113;DHT22;7657;50.140;7.076;2023-04-01T17:58:17;10.50;99.90
15113;DHT22;7657;50.140;7.076;2023-04-01T18:00:54;10.40;99.90
15113;DHT22;7657;50.140;7.076;2023-04-01T18:03:45;10.40;99.90
15113;DHT22;7657;50.140;7.076;2023-04-01T18:06:19;10.40;99.90